createdAt,value
2022-09-06T00:00:50.096Z,54.89
2022-09-06T00:01:50.320Z,55.09
2022-09-06T00:02:50.532Z,55.09
2022-09-06T00:03:50.926Z,55.09
2022-09-06T00:04:50.935Z,54.86
2022-09-06T00:05:51.081Z,55.09
2022-09-06T00:06:51.813Z,54.99
2022-09-06T00:07:51.382Z,55.09
2022-09-06T00:08:51.548Z,55.06
2022-09-06T00:09:52.309Z,54.99
2022-09-06T00:10:52.813Z,54.86
2022-09-06T00:11:52.183Z,54.99
2022-09-06T00:12:52.355Z,55.16
2022-09-06T00:13:52.500Z,55.19
2022-09-06T00:14:52.659Z,55.49
2022-09-06T00:15:52.896Z,55.19
2022-09-06T00:16:53.000Z,55.66
2022-09-06T00:17:53.169Z,55.39
2022-09-06T00:18:53.328Z,55.29
2022-09-06T00:19:54.315Z,55.39
2022-09-06T00:20:53.730Z,55.99
2022-09-06T00:21:53.890Z,55.79
2022-09-06T00:22:54.052Z,55.49
2022-09-06T00:23:54.275Z,55.58
2022-09-06T00:24:54.474Z,55.79
2022-09-06T00:25:54.669Z,55.79
2022-09-06T00:26:54.833Z,55.69
2022-09-06T00:27:55.019Z,55.69
2022-09-06T00:28:55.820Z,55.58
2022-09-06T00:29:55.334Z,55.69
2022-09-06T00:30:55.521Z,56.29
2022-09-06T00:31:55.718Z,55.79
2022-09-06T00:32:55.871Z,55.79
2022-09-06T00:33:56.817Z,55.69
2022-09-06T00:34:56.349Z,56.18
2022-09-06T00:35:56.364Z,55.99
2022-09-06T00:36:56.511Z,56.18
2022-09-06T00:37:56.635Z,56.18
2022-09-06T00:38:56.781Z,56.18
2022-09-06T00:39:56.980Z,56.38
2022-09-06T00:40:57.822Z,56.68
2022-09-06T00:41:57.348Z,56.59
2022-09-06T00:42:58.324Z,56.48
2022-09-06T00:43:57.686Z,56.38
2022-09-06T00:44:57.826Z,56.38
2022-09-06T00:45:58.013Z,56.68
2022-09-06T00:46:58.339Z,56.88
2022-09-06T00:47:58.358Z,56.88
2022-09-06T00:48:59.329Z,56.79
2022-09-06T00:49:58.703Z,56.79
2022-09-06T00:50:58.882Z,56.79
2022-09-06T00:51:59.060Z,56.48
2022-09-06T00:52:59.240Z,56.59
2022-09-06T00:53:59.396Z,56.48
2022-09-06T00:54:59.543Z,56.98
2022-09-06T00:55:59.699Z,56.98
2022-09-06T00:56:59.837Z,56.98
2022-09-06T00:58:00.345Z,56.38
2022-09-06T00:59:00.229Z,56.68
2022-09-06T01:00:00.371Z,56.88
2022-09-06T01:01:00.537Z,56.79
2022-09-06T01:02:01.492Z,57.18
2022-09-06T01:03:00.797Z,57.18
2022-09-06T01:04:00.910Z,57.28
2022-09-06T01:05:01.044Z,57.78
2022-09-06T01:06:01.194Z,57.09
2022-09-06T01:07:01.328Z,57.81
2022-09-06T01:08:01.482Z,57.88
2022-09-06T01:09:01.602Z,57.68
2022-09-06T01:10:01.737Z,57.68
2022-09-06T01:11:02.835Z,56.79
2022-09-06T01:12:02.062Z,56.79
2022-09-06T01:13:02.350Z,57.68
2022-09-06T01:14:02.376Z,58.21
2022-09-06T01:15:02.562Z,57.58
2022-09-06T01:16:02.808Z,57.71
2022-09-06T01:17:02.898Z,57.81
2022-09-06T01:18:03.063Z,58.21
2022-09-06T01:19:03.205Z,57.88
2022-09-06T01:20:03.349Z,58.31
2022-09-06T01:21:03.480Z,58.18
2022-09-06T01:22:03.656Z,58.11
2022-09-06T01:23:03.837Z,57.98
2022-09-06T01:24:04.017Z,58.21
2022-09-06T01:25:04.160Z,58.11
2022-09-06T01:26:04.333Z,58.18
2022-09-06T01:27:04.482Z,58.31
2022-09-06T01:28:04.623Z,58.21
2022-09-06T01:29:04.842Z,58.18
2022-09-06T01:30:05.003Z,58.38
2022-09-06T01:31:05.410Z,58.28
2022-09-06T01:32:05.354Z,58.28
2022-09-06T01:33:05.515Z,58.28
2022-09-06T01:34:05.668Z,58.21
2022-09-06T01:35:05.809Z,58.08
2022-09-06T01:36:05.949Z,58.18
2022-09-06T01:37:10.273Z,57.98
2022-09-06T01:38:07.330Z,57.98
2022-09-06T01:39:06.452Z,58.08
2022-09-06T01:40:06.684Z,58.28
2022-09-06T01:41:06.733Z,58.28
2022-09-06T01:42:06.921Z,58.18
2022-09-06T01:43:10.792Z,57.98
2022-09-06T01:44:08.318Z,57.98
2022-09-06T01:45:08.590Z,58.28
2022-09-06T01:46:07.758Z,58.18
2022-09-06T01:47:07.854Z,58.38
2022-09-06T01:48:08.013Z,58.38
2022-09-06T01:49:08.849Z,58.18
2022-09-06T01:50:08.346Z,58.48
2022-09-06T01:51:08.490Z,58.55
2022-09-06T01:52:08.677Z,58.45
2022-09-06T01:53:08.821Z,58.25
2022-09-06T01:54:08.980Z,58.15
2022-09-06T01:55:09.117Z,57.86
2022-09-06T01:56:09.291Z,58.38
2022-09-06T01:57:09.449Z,58.25
2022-09-06T01:58:10.390Z,58.18
2022-09-06T01:59:09.793Z,58.15
2022-09-06T02:00:09.927Z,58.18
2022-09-06T02:01:10.118Z,58.08
2022-09-06T02:02:10.284Z,58.18
2022-09-06T02:03:10.377Z,58.08
2022-09-06T02:04:10.869Z,58.28
2022-09-06T02:05:10.756Z,58.31
2022-09-06T02:06:10.907Z,58.01
2022-09-06T02:07:11.059Z,58.71
2022-09-06T02:08:11.859Z,58.71
2022-09-06T02:09:11.377Z,58.61
2022-09-06T02:10:11.524Z,58.31
2022-09-06T02:11:11.688Z,58.94
2022-09-06T02:12:11.832Z,59.04
2022-09-06T02:13:12.010Z,59.74
2022-09-06T02:14:12.859Z,59.74
2022-09-06T02:15:12.871Z,60.14
2022-09-06T02:16:12.518Z,59.64
2022-09-06T02:17:12.653Z,60.33
2022-09-06T02:18:12.856Z,59.86
2022-09-06T02:19:13.871Z,60.24
2022-09-06T02:20:13.150Z,60.44
2022-09-06T02:21:13.339Z,59.74
2022-09-06T02:22:13.505Z,59.94
2022-09-06T02:23:13.668Z,59.74
2022-09-06T02:24:13.836Z,60.03
2022-09-06T02:25:13.987Z,60.27
2022-09-06T02:26:14.174Z,60.36
2022-09-06T02:27:14.865Z,60.27
2022-09-06T02:28:14.511Z,60.27
2022-09-06T02:29:15.361Z,60.27
2022-09-06T02:30:15.862Z,60.27
2022-09-06T02:31:15.068Z,60.77
2022-09-06T02:32:15.167Z,60.77
2022-09-06T02:33:15.305Z,60.89
2022-09-06T02:34:15.480Z,61.40
2022-09-06T02:35:16.364Z,61.49
2022-09-06T02:36:15.924Z,61.69
2022-09-06T02:37:16.107Z,62.09
2022-09-06T02:38:16.310Z,62.19
2022-09-06T02:39:16.481Z,61.99
2022-09-06T02:40:16.656Z,62.42
2022-09-06T02:41:16.830Z,62.19
2022-09-06T02:42:17.011Z,62.72
2022-09-06T02:43:17.870Z,62.72
2022-09-06T02:44:17.406Z,62.72
2022-09-06T02:45:17.564Z,62.89
2022-09-06T02:46:17.785Z,62.72
2022-09-06T02:47:18.383Z,62.82
2022-09-06T02:48:18.035Z,62.92
2022-09-06T02:49:18.182Z,63.22
2022-09-06T02:50:18.327Z,63.02
2022-09-06T02:51:18.447Z,62.92
2022-09-06T02:52:19.573Z,62.92
2022-09-06T02:53:18.821Z,62.92
2022-09-06T02:54:18.929Z,63.02
2022-09-06T02:55:19.150Z,62.92
2022-09-06T02:56:19.390Z,62.72
2022-09-06T02:57:20.373Z,62.82
2022-09-06T02:58:19.850Z,62.62
2022-09-06T02:59:19.971Z,63.02
2022-09-06T03:00:20.375Z,63.32
2022-09-06T03:01:20.298Z,63.32
2022-09-06T03:02:21.448Z,63.22
2022-09-06T03:03:21.377Z,63.42
2022-09-06T03:04:20.778Z,63.82
2022-09-06T03:05:21.877Z,64.12
2022-09-06T03:06:21.875Z,63.15
2022-09-06T03:07:21.215Z,63.32
2022-09-06T03:08:21.447Z,63.35
2022-09-06T03:09:21.481Z,63.95
2022-09-06T03:10:22.747Z,64.03
2022-09-06T03:11:21.849Z,63.56
2022-09-06T03:12:22.894Z,63.75
2022-09-06T03:13:22.117Z,63.95
2022-09-06T03:14:22.381Z,63.95
2022-09-06T03:15:22.433Z,64.18
2022-09-06T03:16:22.671Z,64.48
2022-09-06T03:17:22.741Z,64.18
2022-09-06T03:18:22.955Z,65.09
2022-09-06T03:19:23.050Z,65.28
2022-09-06T03:20:23.215Z,65.59
2022-09-06T03:21:23.384Z,66.19
2022-09-06T03:22:23.548Z,65.59
2022-09-06T03:23:23.896Z,65.01
2022-09-06T03:24:24.884Z,65.42
2022-09-06T03:25:24.884Z,65.31
2022-09-06T03:26:24.254Z,65.72
2022-09-06T03:27:24.399Z,65.82
2022-09-06T03:28:24.561Z,65.31
2022-09-06T03:29:24.739Z,66.02
2022-09-06T03:30:24.964Z,65.42
2022-09-06T03:31:25.014Z,65.62
2022-09-06T03:32:25.185Z,65.85
2022-09-06T03:33:25.368Z,65.72
2022-09-06T03:34:25.548Z,65.82
2022-09-06T03:35:25.718Z,65.52
2022-09-06T03:36:25.849Z,65.72
2022-09-06T03:37:26.016Z,66.12
2022-09-06T03:38:26.152Z,66.62
2022-09-06T03:39:26.456Z,66.32
2022-09-06T03:40:26.618Z,66.25
2022-09-06T03:41:27.393Z,66.45
2022-09-06T03:42:26.909Z,66.45
2022-09-06T03:43:27.071Z,66.68
2022-09-06T03:44:27.185Z,66.65
2022-09-06T03:45:27.342Z,66.68
2022-09-06T03:46:27.491Z,66.95
2022-09-06T03:47:27.631Z,66.85
2022-09-06T03:48:27.895Z,66.95
2022-09-06T03:49:27.890Z,67.18
2022-09-06T03:50:28.063Z,66.95
2022-09-06T03:51:28.916Z,67.08
2022-09-06T03:52:29.395Z,67.15
2022-09-06T03:53:28.637Z,67.29
2022-09-06T03:54:28.759Z,67.38
2022-09-06T03:55:29.005Z,68.49
2022-09-06T03:56:29.394Z,68.19
2022-09-06T03:57:29.894Z,68.29
2022-09-06T03:58:29.910Z,68.19
2022-09-06T03:59:29.667Z,67.99
2022-09-06T04:00:30.393Z,68.02
2022-09-06T04:01:30.058Z,68.32
2022-09-06T04:02:30.946Z,68.42
2022-09-06T04:03:30.365Z,68.29
2022-09-06T04:04:30.497Z,68.12
2022-09-06T04:05:31.395Z,68.19
2022-09-06T04:06:30.879Z,68.12
2022-09-06T04:07:31.017Z,68.42
2022-09-06T04:08:31.199Z,68.72
2022-09-06T04:09:31.307Z,69.12
2022-09-06T04:10:31.436Z,69.12
2022-09-06T04:11:31.581Z,68.92
2022-09-06T04:12:32.402Z,69.12
2022-09-06T04:13:32.431Z,69.32
2022-09-06T04:14:32.025Z,68.89
2022-09-06T04:15:32.191Z,69.42
2022-09-06T04:16:32.943Z,69.59
2022-09-06T04:17:32.457Z,69.59
2022-09-06T04:18:33.399Z,69.12
2022-09-06T04:19:32.755Z,69.39
2022-09-06T04:20:32.923Z,69.19
2022-09-06T04:21:33.061Z,69.69
2022-09-06T04:22:33.200Z,69.49
2022-09-06T04:23:37.665Z,69.09
2022-09-06T04:24:35.917Z,69.39
2022-09-06T04:25:33.776Z,69.35
2022-09-06T04:26:34.903Z,70.19
2022-09-06T04:27:34.138Z,69.46
2022-09-06T04:28:34.316Z,69.56
2022-09-06T04:29:35.407Z,69.26
2022-09-06T04:30:34.652Z,69.86
2022-09-06T04:31:34.930Z,69.86
2022-09-06T04:32:34.992Z,69.96
2022-09-06T04:33:35.119Z,70.16
2022-09-06T04:34:35.291Z,70.09
2022-09-06T04:35:35.460Z,70.06
2022-09-06T04:36:35.579Z,70.46
2022-09-06T04:37:35.719Z,70.59
2022-09-06T04:38:35.910Z,70.39
2022-09-06T04:39:36.096Z,70.59
2022-09-06T04:40:36.271Z,70.39
2022-09-06T04:41:36.410Z,70.79
2022-09-06T04:42:37.410Z,70.39
2022-09-06T04:43:36.950Z,70.69
2022-09-06T04:44:36.966Z,70.50
2022-09-06T04:45:37.480Z,70.50
2022-09-06T04:46:37.244Z,70.59
2022-09-06T04:47:37.422Z,70.69
2022-09-06T04:48:37.553Z,70.39
2022-09-06T04:49:37.699Z,70.69
2022-09-06T04:50:38.414Z,71.00
2022-09-06T04:51:38.040Z,70.50
2022-09-06T04:52:39.209Z,70.59
2022-09-06T04:53:38.440Z,70.39
2022-09-06T04:54:38.577Z,70.79
2022-09-06T04:55:38.723Z,70.89
2022-09-06T04:56:38.850Z,70.89
2022-09-06T04:57:42.251Z,70.09
2022-09-06T04:58:41.252Z,70.19
2022-09-06T04:59:39.341Z,70.29
2022-09-06T05:00:39.514Z,70.83
2022-09-06T05:01:39.691Z,70.93
2022-09-06T05:02:40.505Z,70.43
2022-09-06T05:03:40.935Z,70.53
2022-09-06T05:04:40.202Z,70.73
2022-09-06T05:05:40.916Z,71.03
2022-09-06T05:06:40.575Z,71.09
2022-09-06T05:07:40.696Z,71.13
2022-09-06T05:08:41.419Z,71.43
2022-09-06T05:09:41.050Z,71.43
2022-09-06T05:10:41.178Z,71.23
2022-09-06T05:11:41.318Z,71.33
2022-09-06T05:12:44.284Z,71.53
2022-09-06T05:13:42.562Z,71.66
2022-09-06T05:14:41.819Z,72.13
2022-09-06T05:15:42.923Z,72.03
2022-09-06T05:16:42.221Z,72.06
2022-09-06T05:17:42.382Z,71.86
2022-09-06T05:18:43.431Z,71.16
2022-09-06T05:19:42.678Z,71.56
2022-09-06T05:20:42.816Z,71.86
2022-09-06T05:21:42.974Z,72.13
2022-09-06T05:22:43.128Z,71.93
2022-09-06T05:23:43.322Z,71.83
2022-09-06T05:24:43.453Z,72.13
2022-09-06T05:25:43.591Z,71.93
2022-09-06T05:26:43.753Z,72.03
2022-09-06T05:27:43.895Z,72.03
2022-09-06T05:28:44.007Z,72.03
2022-09-06T05:29:44.250Z,71.63
2022-09-06T05:30:44.442Z,72.53
2022-09-06T05:31:44.581Z,71.43
2022-09-06T05:32:44.936Z,71.86
2022-09-06T05:33:45.430Z,72.24
2022-09-06T05:34:45.166Z,71.26
2022-09-06T05:35:45.320Z,71.26
2022-09-06T05:36:45.947Z,71.86
2022-09-06T05:37:45.567Z,71.43
2022-09-06T05:38:46.433Z,72.24
2022-09-06T05:39:46.470Z,71.43
2022-09-06T05:40:46.129Z,72.83
2022-09-06T05:41:46.283Z,73.44
2022-09-06T05:42:46.941Z,73.74
2022-09-06T05:43:46.582Z,73.24
2022-09-06T05:44:46.712Z,72.94
2022-09-06T05:45:46.887Z,72.24
2022-09-06T05:46:47.452Z,72.03
2022-09-06T05:47:47.191Z,72.24
2022-09-06T05:48:47.360Z,72.74
2022-09-06T05:49:47.491Z,73.07
2022-09-06T05:50:47.732Z,72.77
2022-09-06T05:51:47.896Z,72.56
2022-09-06T05:52:48.015Z,73.07
2022-09-06T05:53:48.932Z,73.27
2022-09-06T05:54:48.304Z,73.27
2022-09-06T05:55:48.418Z,72.87
2022-09-06T05:56:48.560Z,73.57
2022-09-06T05:57:48.691Z,72.97
2022-09-06T05:58:48.833Z,73.27
2022-09-06T05:59:48.953Z,73.00
2022-09-06T06:00:49.968Z,73.07
2022-09-06T06:01:49.410Z,73.41
2022-09-06T06:02:49.610Z,73.57
2022-09-06T06:03:50.440Z,73.07
2022-09-06T06:04:49.940Z,73.27
2022-09-06T06:05:50.937Z,72.97
2022-09-06T06:06:50.936Z,73.67
2022-09-06T06:07:51.461Z,73.87
2022-09-06T06:08:50.675Z,73.17
2022-09-06T06:09:50.821Z,72.77
2022-09-06T06:10:50.972Z,73.13
2022-09-06T06:11:51.127Z,72.67
2022-09-06T06:12:51.271Z,72.67
2022-09-06T06:13:51.458Z,72.67
2022-09-06T06:14:51.637Z,72.47
2022-09-06T06:15:52.443Z,72.67
2022-09-06T06:16:52.516Z,72.77
2022-09-06T06:17:52.153Z,72.87
2022-09-06T06:18:52.931Z,73.27
2022-09-06T06:19:52.522Z,72.13
2022-09-06T06:20:52.685Z,71.93
2022-09-06T06:21:52.854Z,73.03
2022-09-06T06:22:53.943Z,72.83
2022-09-06T06:23:53.203Z,73.13
2022-09-06T06:24:53.381Z,73.13
2022-09-06T06:25:53.557Z,71.43
2022-09-06T06:26:53.726Z,72.13
2022-09-06T06:27:54.448Z,72.24
2022-09-06T06:28:54.949Z,71.03
2022-09-06T06:29:54.358Z,71.56
2022-09-06T06:30:54.534Z,71.97
2022-09-06T06:31:54.754Z,72.27
2022-09-06T06:32:55.432Z,70.93
2022-09-06T06:33:56.074Z,70.93
2022-09-06T06:34:55.204Z,71.23
2022-09-06T06:35:55.378Z,71.13
2022-09-06T06:36:55.563Z,71.43
2022-09-06T06:37:55.737Z,71.13
2022-09-06T06:38:55.893Z,71.00
2022-09-06T06:39:56.199Z,70.06
2022-09-06T06:41:00.162Z,69.82
2022-09-06T06:41:58.401Z,68.69
2022-09-06T06:42:57.452Z,69.36
2022-09-06T06:43:57.452Z,68.02
2022-09-06T06:44:56.908Z,66.69
2022-09-06T06:45:57.135Z,66.23
2022-09-06T06:46:57.228Z,65.43
2022-09-06T06:47:57.957Z,65.53
2022-09-06T06:48:57.970Z,65.26
2022-09-06T06:49:58.456Z,65.86
2022-09-06T06:50:57.958Z,65.69
2022-09-06T06:51:58.139Z,66.09
2022-09-06T06:52:58.295Z,66.19
2022-09-06T06:53:58.431Z,66.26
2022-09-06T06:54:58.967Z,65.23
2022-09-06T06:55:59.454Z,64.54
2022-09-06T06:56:58.853Z,62.45
2022-09-06T06:57:59.013Z,60.97
2022-09-06T06:58:59.148Z,59.62
2022-09-06T06:59:59.298Z,57.87
2022-09-06T07:00:59.604Z,56.23
2022-09-06T07:02:00.069Z,57.68
2022-09-06T07:02:59.927Z,58.43
2022-09-06T07:04:00.968Z,59.35
2022-09-06T07:05:00.700Z,59.65
2022-09-06T07:08:02.808Z,57.87
2022-09-06T07:09:01.496Z,58.33
2022-09-06T07:11:03.506Z,59.00
2022-09-06T07:12:01.718Z,57.68
2022-09-06T07:13:01.963Z,56.40
2022-09-06T07:14:02.480Z,55.24
2022-09-06T07:15:02.246Z,54.71
2022-09-06T07:16:02.431Z,53.67
2022-09-06T07:17:04.124Z,52.53
2022-09-06T07:18:03.751Z,51.30
2022-09-06T07:19:03.128Z,50.78
2022-09-06T07:20:18.398Z,50.36
2022-09-06T07:22:06.422Z,49.87
2022-09-06T07:24:06.738Z,52.98
2022-09-06T07:25:05.082Z,54.64
2022-09-06T07:26:04.321Z,55.85
2022-09-06T07:28:06.700Z,57.85
2022-09-06T07:29:05.995Z,58.37
2022-09-06T07:30:05.127Z,58.27
2022-09-06T07:31:06.103Z,58.67
2022-09-06T07:33:06.648Z,58.70
2022-09-06T07:34:05.999Z,59.09
2022-09-06T07:35:06.008Z,59.49
2022-09-06T07:36:06.170Z,57.60
2022-09-06T07:37:06.335Z,56.34
2022-09-06T07:38:06.976Z,55.04
2022-09-06T07:39:06.612Z,55.34
2022-09-06T07:40:06.788Z,55.87
2022-09-06T07:41:06.988Z,56.19
2022-09-06T07:42:07.148Z,56.68
2022-09-06T07:43:07.285Z,56.59
2022-09-06T07:44:07.417Z,56.38
2022-09-06T07:45:07.624Z,56.68
2022-09-06T07:46:07.774Z,56.59
2022-09-06T07:48:10.492Z,56.16
2022-09-06T07:49:08.312Z,56.09
2022-09-06T07:51:10.709Z,56.29
2022-09-06T07:53:15.486Z,55.89
2022-09-06T07:54:29.760Z,55.10
2022-09-06T07:55:11.599Z,55.07
2022-09-06T07:56:09.832Z,54.94
2022-09-06T07:57:09.993Z,54.57
2022-09-06T07:58:10.987Z,55.15
2022-09-06T07:59:10.325Z,53.75
2022-09-06T08:00:10.434Z,54.32
2022-09-06T08:01:11.622Z,53.43
2022-09-06T08:02:10.785Z,52.66
2022-09-06T08:03:10.982Z,53.26
2022-09-06T08:04:11.124Z,53.45
2022-09-06T08:06:13.468Z,53.20
2022-09-06T08:09:14.025Z,49.32
2022-09-06T08:10:13.902Z,47.87
2022-09-06T08:11:12.368Z,47.60
2022-09-06T08:12:12.491Z,46.32
2022-09-06T08:13:13.508Z,46.66
2022-09-06T08:14:13.491Z,47.45
2022-09-06T08:15:13.092Z,47.67
2022-09-06T08:16:13.346Z,47.50
2022-09-06T08:17:13.399Z,47.10
2022-09-06T08:18:13.527Z,48.14
2022-09-06T08:19:14.665Z,47.99
2022-09-06T08:20:13.902Z,48.68
2022-09-06T08:21:14.505Z,49.79
2022-09-06T08:22:14.260Z,49.81
2022-09-06T08:23:14.407Z,51.30
2022-09-06T08:24:14.521Z,50.71
2022-09-06T08:25:15.529Z,49.71
2022-09-06T08:26:15.492Z,51.30
2022-09-06T08:27:15.140Z,50.41
2022-09-06T08:28:15.270Z,49.32
2022-09-06T08:29:16.010Z,50.51
2022-09-06T08:30:15.620Z,49.77
2022-09-06T08:31:16.769Z,49.57
2022-09-06T08:32:16.010Z,49.66
2022-09-06T08:33:16.999Z,49.79
2022-09-06T08:34:17.004Z,50.68
2022-09-06T08:35:16.523Z,50.88
2022-09-06T08:36:16.665Z,50.09
2022-09-06T08:37:16.805Z,50.58
2022-09-06T08:38:17.919Z,50.60
2022-09-06T08:39:17.158Z,51.00
2022-09-06T08:40:18.004Z,50.31
2022-09-06T08:41:17.997Z,50.71
2022-09-06T08:42:17.737Z,50.51
2022-09-06T08:43:18.011Z,50.31
2022-09-06T08:45:21.017Z,50.51
2022-09-06T08:46:18.499Z,51.50
2022-09-06T08:47:19.033Z,50.29
2022-09-06T08:48:18.775Z,50.58
2022-09-06T08:49:19.040Z,50.48
2022-09-06T08:50:19.515Z,50.29
2022-09-06T08:51:19.402Z,49.77
2022-09-06T08:52:20.513Z,50.36
2022-09-06T08:53:20.509Z,49.74
2022-09-06T08:54:19.920Z,49.54
2022-09-06T08:55:20.063Z,50.61
2022-09-06T08:56:20.216Z,49.01
2022-09-06T08:57:20.365Z,48.02
2022-09-06T08:58:20.513Z,48.61
2022-09-06T08:59:21.022Z,48.90
2022-09-06T09:00:20.831Z,47.69
2022-09-06T09:01:21.004Z,47.03
2022-09-06T09:02:21.191Z,47.54
2022-09-06T09:03:21.393Z,48.80
2022-09-06T09:04:21.562Z,47.64
2022-09-06T09:05:22.025Z,48.41
2022-09-06T09:06:21.923Z,47.72
2022-09-06T09:07:22.057Z,47.62
2022-09-06T09:08:23.078Z,47.72
2022-09-06T09:09:23.339Z,47.54
2022-09-06T09:10:23.024Z,47.91
2022-09-06T09:11:23.520Z,48.88
2022-09-06T09:12:23.003Z,48.58
2022-09-06T09:13:23.138Z,47.60
2022-09-06T09:14:23.279Z,47.91
2022-09-06T09:15:23.439Z,47.54
2022-09-06T09:16:23.651Z,48.33
2022-09-06T09:17:23.811Z,48.24
2022-09-06T09:18:24.198Z,47.96
2022-09-06T09:19:24.225Z,49.42
2022-09-06T09:20:24.365Z,48.75
2022-09-06T09:21:29.573Z,49.02
2022-09-06T09:22:27.518Z,48.51
2022-09-06T09:23:24.835Z,48.21
2022-09-06T09:24:25.089Z,47.62
2022-09-06T09:25:25.211Z,47.84
2022-09-06T09:26:25.338Z,48.02
2022-09-06T09:27:25.462Z,47.62
2022-09-06T09:28:26.532Z,47.77
2022-09-06T09:29:29.509Z,46.86
2022-09-06T09:31:28.183Z,46.10
2022-09-06T09:32:27.164Z,45.24
2022-09-06T09:33:26.613Z,45.73
2022-09-06T09:34:26.662Z,45.93
2022-09-06T09:35:26.795Z,45.61
2022-09-06T09:36:26.947Z,45.39
2022-09-06T09:38:29.746Z,44.54
2022-09-06T09:39:27.469Z,44.22
2022-09-06T09:40:27.640Z,43.49
2022-09-06T09:41:27.771Z,43.02
2022-09-06T09:42:28.526Z,43.06
2022-09-06T09:43:29.033Z,43.77
2022-09-06T09:44:28.278Z,44.31
2022-09-06T09:45:28.388Z,45.19
2022-09-06T09:46:28.574Z,45.41
2022-09-06T09:47:29.051Z,45.12
2022-09-06T09:48:29.064Z,44.94
2022-09-06T09:49:30.031Z,45.14
2022-09-06T09:50:29.269Z,45.34
2022-09-06T09:51:30.063Z,45.93
2022-09-06T09:52:29.571Z,45.83
2022-09-06T09:53:29.690Z,45.34
2022-09-06T09:54:30.040Z,44.74
2022-09-06T09:55:30.165Z,45.14
2022-09-06T09:56:30.416Z,45.06
2022-09-06T09:57:31.043Z,45.06
2022-09-06T09:58:31.554Z,45.46
2022-09-06T09:59:30.913Z,45.36
2022-09-06T10:00:32.170Z,45.65
2022-09-06T10:01:31.216Z,45.83
2022-09-06T10:02:31.376Z,45.43
2022-09-06T10:03:31.587Z,45.63
2022-09-06T10:04:49.016Z,45.34
2022-09-06T10:05:33.864Z,45.51
2022-09-06T10:07:35.044Z,45.61
2022-09-06T10:08:32.371Z,45.51
2022-09-06T10:09:32.504Z,45.61
2022-09-06T10:10:32.632Z,45.90
2022-09-06T10:11:32.780Z,45.41
2022-09-06T10:12:33.536Z,45.71
2022-09-06T10:13:33.015Z,45.81
2022-09-06T10:14:33.164Z,44.82
2022-09-06T10:15:33.547Z,45.24
2022-09-06T10:16:33.491Z,45.51
2022-09-06T10:17:33.667Z,45.21
2022-09-06T10:18:33.819Z,45.61
2022-09-06T10:19:33.955Z,45.68
2022-09-06T10:20:34.089Z,44.58
2022-09-06T10:21:34.226Z,44.56
2022-09-06T10:22:34.388Z,44.34
2022-09-06T10:24:37.552Z,43.04
2022-09-06T10:25:35.545Z,43.65
2022-09-06T10:26:36.068Z,43.75
2022-09-06T10:27:36.071Z,44.36
2022-09-06T10:28:35.457Z,44.24
2022-09-06T10:29:36.050Z,43.18
2022-09-06T10:30:35.847Z,42.49
2022-09-06T10:31:36.033Z,42.81
2022-09-06T10:32:37.046Z,43.30
2022-09-06T10:33:36.321Z,44.51
2022-09-06T10:34:36.489Z,44.26
2022-09-06T10:35:37.552Z,43.57
2022-09-06T10:36:37.070Z,44.26
2022-09-06T10:37:37.557Z,43.85
2022-09-06T10:38:37.204Z,43.73
2022-09-06T10:39:38.312Z,44.32
2022-09-06T10:40:37.490Z,43.83
2022-09-06T10:41:37.672Z,42.82
2022-09-06T10:42:37.823Z,42.53
2022-09-06T10:43:37.997Z,42.33
2022-09-06T10:44:38.155Z,42.33
2022-09-06T10:45:39.054Z,43.00
2022-09-06T10:46:38.520Z,42.63
2022-09-06T10:47:38.602Z,42.72
2022-09-06T10:48:38.746Z,42.43
2022-09-06T10:49:39.572Z,42.57
2022-09-06T10:50:39.071Z,43.06
2022-09-06T10:51:39.599Z,43.43
2022-09-06T10:52:40.058Z,43.61
2022-09-06T10:53:39.701Z,42.72
2022-09-06T10:54:39.839Z,42.90
2022-09-06T10:55:40.567Z,41.71
2022-09-06T10:56:40.205Z,42.00
2022-09-06T10:59:42.625Z,42.02
2022-09-06T11:00:40.845Z,41.82
2022-09-06T11:01:41.649Z,42.41
2022-09-06T11:02:41.684Z,42.11
2022-09-06T11:04:00.153Z,41.14
2022-09-06T11:05:44.575Z,40.84
2022-09-06T11:06:42.039Z,41.92
2022-09-06T11:07:42.718Z,40.84
2022-09-06T11:09:43.505Z,42.06
2022-09-06T11:10:43.636Z,40.88
2022-09-06T11:11:42.760Z,41.47
2022-09-06T11:12:42.917Z,41.67
2022-09-06T11:13:44.067Z,42.06
2022-09-06T11:14:43.227Z,42.45
2022-09-06T11:15:43.433Z,42.45
2022-09-06T11:16:44.068Z,42.16
2022-09-06T11:17:43.739Z,42.41
2022-09-06T11:18:43.867Z,41.33
2022-09-06T11:19:44.082Z,40.64
2022-09-06T11:20:45.231Z,41.24
2022-09-06T11:21:44.455Z,41.11
2022-09-06T11:22:44.612Z,39.84
2022-09-06T11:23:44.770Z,40.84
2022-09-06T11:24:44.892Z,40.92
2022-09-06T11:25:45.073Z,40.72
2022-09-06T11:26:45.225Z,41.80
2022-09-06T11:27:45.363Z,41.09
2022-09-06T11:28:46.574Z,40.51
2022-09-06T11:29:46.085Z,40.61
2022-09-06T11:30:46.037Z,40.41
2022-09-06T11:32:48.302Z,41.80
2022-09-06T11:33:46.509Z,42.19
2022-09-06T11:34:46.669Z,41.00
2022-09-06T11:35:46.790Z,41.39
2022-09-06T11:36:46.920Z,40.58
2022-09-06T11:37:47.571Z,40.66
2022-09-06T11:38:47.193Z,40.88
2022-09-06T11:40:50.076Z,40.66
2022-09-06T11:41:47.764Z,40.66
2022-09-06T11:42:47.929Z,40.66
2022-09-06T11:43:48.598Z,41.05
2022-09-06T11:44:48.597Z,40.66
2022-09-06T11:45:48.360Z,40.37
2022-09-06T11:46:48.638Z,40.64
2022-09-06T11:47:49.578Z,40.84
2022-09-06T11:48:48.981Z,39.56
2022-09-06T11:49:49.141Z,39.56
2022-09-06T11:50:50.081Z,39.56
2022-09-06T11:51:49.468Z,39.66
2022-09-06T11:52:49.602Z,39.66
2022-09-06T11:53:49.781Z,39.94
2022-09-06T11:54:49.932Z,39.86
2022-09-06T11:55:50.097Z,39.61
2022-09-06T11:56:50.258Z,40.51
2022-09-06T11:57:50.417Z,40.68
2022-09-06T11:58:50.620Z,40.68
2022-09-06T11:59:51.596Z,41.05
2022-09-06T12:00:51.995Z,40.86
2022-09-06T12:01:51.156Z,40.08
2022-09-06T12:02:51.430Z,39.98
2022-09-06T12:04:08.006Z,40.27
2022-09-06T12:04:56.099Z,39.56
2022-09-06T12:05:51.962Z,39.54
2022-09-06T12:06:52.140Z,39.04
2022-09-06T12:07:52.328Z,38.94
2022-09-06T12:08:52.621Z,38.94
2022-09-06T12:09:52.719Z,38.73
2022-09-06T12:10:52.949Z,38.55
2022-09-06T12:11:53.125Z,38.67
2022-09-06T12:12:53.319Z,38.88
2022-09-06T12:13:54.090Z,39.39
2022-09-06T12:14:53.732Z,39.61
2022-09-06T12:15:53.976Z,40.70
2022-09-06T12:16:54.104Z,40.21
2022-09-06T12:17:55.095Z,40.19
2022-09-06T12:18:54.494Z,40.00
2022-09-06T12:19:55.112Z,39.78
2022-09-06T12:20:54.890Z,40.17
2022-09-06T12:21:55.038Z,38.70
2022-09-06T12:22:55.607Z,39.49
2022-09-06T12:23:56.101Z,39.80
2022-09-06T12:24:55.605Z,39.00
2022-09-06T12:25:55.767Z,39.09
2022-09-06T12:26:56.604Z,39.37
2022-09-06T12:27:56.098Z,38.68
2022-09-06T12:28:56.596Z,39.07
2022-09-06T12:29:57.105Z,39.06
2022-09-06T12:30:56.646Z,38.88
2022-09-06T12:31:56.817Z,39.45
2022-09-06T12:32:56.934Z,39.15
2022-09-06T12:33:57.066Z,39.35
2022-09-06T12:36:00.520Z,38.84
2022-09-06T12:36:57.697Z,38.65
2022-09-06T12:37:57.832Z,38.65
2022-09-06T12:38:57.972Z,38.94
2022-09-06T12:39:58.143Z,38.26
2022-09-06T12:40:58.547Z,37.37
2022-09-06T12:41:58.612Z,37.47
2022-09-06T12:42:58.616Z,37.95
2022-09-06T12:43:59.634Z,37.35
2022-09-06T12:44:59.612Z,38.34
2022-09-06T12:45:59.157Z,37.75
2022-09-06T12:46:59.316Z,37.54
2022-09-06T12:48:00.111Z,36.85
2022-09-06T12:48:59.613Z,36.46
2022-09-06T12:50:00.121Z,36.16
2022-09-06T12:51:00.006Z,37.06
2022-09-06T12:52:00.620Z,37.49
2022-09-06T12:53:00.622Z,38.20
2022-09-06T12:54:00.512Z,38.21
2022-09-06T12:55:01.610Z,38.70
2022-09-06T12:56:00.962Z,37.23
2022-09-06T12:57:01.134Z,37.71
2022-09-06T12:58:02.113Z,37.51
2022-09-06T12:59:01.469Z,37.71
2022-09-06T13:00:01.601Z,37.29
2022-09-06T13:01:02.619Z,37.39
2022-09-06T13:02:02.195Z,36.59
2022-09-06T13:03:02.199Z,36.69
2022-09-06T13:04:02.359Z,37.39
2022-09-06T13:05:03.121Z,37.19
2022-09-06T13:06:02.621Z,37.88
2022-09-06T13:07:02.743Z,38.96
2022-09-06T13:08:02.881Z,38.65
2022-09-06T13:09:03.023Z,39.31
2022-09-06T13:10:03.184Z,38.34
2022-09-06T13:11:03.615Z,38.04
2022-09-06T13:12:03.517Z,38.35
2022-09-06T13:13:04.621Z,38.35
2022-09-06T13:14:03.863Z,38.35
2022-09-06T13:15:04.133Z,38.45
2022-09-06T13:16:05.144Z,38.28
2022-09-06T13:17:05.284Z,39.07
2022-09-06T13:18:05.116Z,39.56
2022-09-06T13:19:04.875Z,39.66
2022-09-06T13:20:05.032Z,39.54